CDT,Max TemperatureF,Mean TemperatureF,Min TemperatureF,Max Dew PointF,MeanDew PointF,Min DewpointF,Max Humidity, Mean Humidity, Min Humidity, Max Sea Level PressureIn, Mean Sea Level PressureIn, Min Sea Level PressureIn, Max VisibilityMiles, Mean VisibilityMiles, Min VisibilityMiles, Max Wind SpeedMPH, Mean Wind SpeedMPH, Max Gust SpeedMPH,PrecipitationIn, CloudCover, Events, WindDirDegrees
2013-8-1,81,67,54,62,54,46,99,66,31,30.01,29.99,29.97,10,8,0,14,3,22,0.00,1,Fog,298
2013-8-2,85,72,60,68,63,56,94,77,47,29.97,29.91,29.88,10,10,4,13,4,17,0.24,4,Rain-Thunderstorm,222
2013-8-3,81,72,61,65,55,43,90,59,28,30.13,30.05,29.97,10,10,10,10,3,16,0.01,2,,356
2013-8-4,78,65,53,59,55,50,97,67,39,30.20,30.16,30.13,10,10,7,13,3,18,0.00,2,,73
2013-8-5,72,65,58,65,58,52,89,77,69,30.14,30.02,29.89,10,10,7,14,3,21,0.03,4,Rain,166
2013-8-6,83,72,63,70,66,61,95,81,62,29.93,29.89,29.86,10,9,5,8,3,,0.00,3,,197
2013-8-7,88,78,68,72,68,62,95,76,49,29.97,29.86,29.83,10,8,2,15,4,20,0.16,1,Rain-Thunderstorm,256
2013-8-8,79,72,65,62,56,49,85,59,36,30.03,29.99,29.96,10,10,10,14,7,20,0.00,1,,48
2013-8-9,82,68,55,65,58,52,96,66,44,30.06,30.02,30.00,10,10,10,9,2,,0.00,1,,271
2013-8-10,83,72,62,64,56,49,91,58,32,30.14,30.11,30.07,10,10,10,9,3,,0.00,2,,353
2013-8-11,82,68,54,63,57,50,97,65,37,30.15,30.12,30.06,10,10,5,10,2,,0.00,1,,247
2013-8-12,83,73,63,68,63,60,96,70,49,30.04,29.96,29.88,10,10,2,10,4,17,0.00,1,Rain-Thunderstorm,248
2013-8-13,73,63,53,66,50,41,96,62,32,30.16,30.07,29.95,10,9,2,15,6,20,0.00,2,,24
2013-8-14,74,62,49,52,47,40,97,62,30,30.24,30.19,30.16,10,10,7,8,2,,0.00,2,,15
2013-8-15,75,62,49,56,51,47,97,69,37,30.20,30.17,30.12,10,10,7,8,1,,0.00,2,,260
2013-8-16,82,66,51,55,50,44,97,62,28,30.21,30.17,30.14,10,10,0,12,2,17,0.00,1,Fog,50
2013-8-17,82,66,51,56,51,46,97,59,30,30.25,30.21,30.17,10,9,4,10,3,17,0.00,1,,87
2013-8-18,84,68,53,61,54,48,98,64,31,30.22,30.17,30.11,10,8,0,9,2,,0.00,1,Fog,139
2013-8-19,84,70,55,62,58,54,97,69,38,30.15,30.11,30.06,10,8,2,8,1,,0.00,0,,247
2013-8-20,87,73,60,64,61,56,97,70,35,30.15,30.10,30.06,10,8,1,12,2,,0.00,0,,201
2013-8-21,89,76,62,66,63,60,97,67,38,30.12,30.07,30.00,10,8,2,12,3,18,0.00,1,,220
2013-8-22,74,69,62,69,66,62,98,90,70,30.17,30.09,30.02,10,6,0,12,4,17,0.58,3,Fog-Rain-Thunderstorm,215
2013-8-23,83,70,58,67,54,42,99,63,27,30.19,30.15,30.11,10,7,0,12,3,17,0.01,2,Fog,60
2013-8-24,83,70,56,61,58,55,97,65,44,30.27,30.23,30.19,10,10,4,9,3,,0.00,0,,153
2013-8-25,86,74,61,66,61,55,87,63,46,30.28,30.23,30.17,10,10,10,12,3,,0.00,0,,207
2013-8-26,89,76,63,71,67,61,94,72,52,30.19,30.12,30.03,10,10,7,12,4,16,0.00,0,,229
2013-8-27,92,82,72,72,70,65,88,67,48,30.04,29.96,29.89,10,10,7,15,6,20,0.00,0,,222
2013-8-28,86,78,69,71,67,63,91,67,55,30.06,29.96,29.87,10,10,3,12,7,18,0.00,1,,10
2013-8-29,89,78,68,68,64,56,93,67,35,30.10,30.05,30.00,10,7,2,9,3,,0.00,3,,91
2013-8-30,95,79,64,73,67,56,97,73,39,30.00,29.90,29.79,10,8,1,22,3,38,0.42,1,Rain-Thunderstorm,239
2013-8-31,79,73,68,71,67,65,93,84,73,29.88,29.83,29.78,10,10,2,12,6,16,0.16,4,Rain-Thunderstorm,52